SLCR weather

Comarapa Airport
M. Caballero, Santa Cruz Department, Bolivia

Public forecast

Using degrees Celsius for public forecast. Weather courtesy of forecast.io.

METAR (pilot weather report)

Report is more than 6 hours old.

Closest report is Capit├ín Av. Vidal Villagomez Toledo Airport, 41.7 nm (77.2 km) SE. Retrieved 2019/03/22 14:00 UTC (4 days ago):

SLVG 221400Z 00000KT 9999 OVC017 15/13 Q1026 A3030 HR85 RWY NML

TAF (pilot weather forecast)

Forecast is more than 12 hours old.

Closest forecast is El Trompillo Airport, 77.2 nm (142.9 km) E. Retrieved 2019/03/25 12:33 UTC (2 days ago):

TAF COR SLET 251050Z 2512/2612 18006KT 9999 BKN017 BKN070 TX28/2520Z TN22/2610Z PROB30 TEMPO 2518/2521 12016KT 8000 SHRA BKN015 FEW030CB PROB40 TEMPO 2604/2608 7000 RA SCT006 BKN010 BKN070